Stokesdale, North Carolina
Current Conditions -  °F | °C
As of 5:54 PM on Thursday 23 Oct 2014 (Local Time) from KGSO Reporting Station
Clear Clear  
Wind Chill: 65°   Ceiling: Unl
Heat Index: 65°   Visibility: 10mi
Dew Point: 42°   Wind: 12mph
Humidity: 43%   Direction: 310°NW
Pressure: 29.97"   Gusts: NA
Location:  36.24°N, 79.98°W
Report Text: KGSO 232154Z 31010KT 10SM CLR 18/06 A2997 RMK AO2 SLP147 T01830056
Loading
Personal Weather Stations






























Interactive Weather Map
Tropical Storm Tracking
New forecast layout! Learn more

10-Day Weather Forecast

Advertisements
Track Severe Weather on mobile